Nondalton, Alaska
Current Conditions -  °F | °C
As of 8:53 PM on Saturday 25 Oct 2014 (Local Time) from PAIL Reporting Station
Broken Clouds Broken Clouds  
Wind Chill: 27°   Ceiling: 13000
Heat Index: 27°   Visibility: 10mi
Dew Point: 22°   Wind: 3mph
Humidity: 81%   Direction: 320°NW
Pressure: 29.87"   Gusts: NA
Location:  59.98°N, 154.85°W
Report Text: PAIL 260453Z 32003KT 10SM BKN130 M03/M06 A2987 RMK AO2 SLP118 T10281056
Loading
Personal Weather Stations






























Interactive Weather Map
Tropical Storm Tracking
New forecast layout! Learn more

10-Day Weather Forecast

Advertisements
Track Severe Weather on mobile